createdAt,value
2023-03-14T00:00:30.621Z,11.18
2023-03-14T00:01:30.618Z,11.16
2023-03-14T00:02:30.621Z,11.16
2023-03-14T00:03:30.596Z,11.16
2023-03-14T00:04:30.575Z,11.15
2023-03-14T00:05:30.577Z,11.13
2023-03-14T00:06:30.540Z,11.12
2023-03-14T00:07:30.515Z,11.12
2023-03-14T00:08:30.522Z,11.12
2023-03-14T00:09:30.522Z,11.09
2023-03-14T00:10:30.521Z,11.08
2023-03-14T00:11:30.473Z,11.05
2023-03-14T00:12:30.451Z,11.03
2023-03-14T00:13:30.446Z,11.02
2023-03-14T00:14:30.452Z,11.01
2023-03-14T00:15:30.418Z,11.01
2023-03-14T00:16:30.403Z,11.02
2023-03-14T00:17:30.404Z,11.01
2023-03-14T00:18:30.367Z,10.99
2023-03-14T00:19:30.426Z,10.97
2023-03-14T00:20:30.374Z,10.93
2023-03-14T00:21:30.349Z,10.89
2023-03-14T00:22:30.328Z,10.87
2023-03-14T00:23:30.406Z,10.87
2023-03-14T00:24:30.295Z,10.88
2023-03-14T00:25:30.282Z,10.87
2023-03-14T00:26:30.276Z,10.86
2023-03-14T00:27:30.264Z,10.84
2023-03-14T00:28:30.278Z,10.85
2023-03-14T00:29:30.246Z,10.91
2023-03-14T00:30:30.206Z,10.98
2023-03-14T00:31:30.288Z,11.00
2023-03-14T00:32:30.268Z,11.00
2023-03-14T00:33:30.176Z,11.01
2023-03-14T00:34:30.171Z,11.01
2023-03-14T00:35:30.162Z,11.00
2023-03-14T00:36:30.135Z,11.00
2023-03-14T00:37:30.114Z,11.03
2023-03-14T00:38:30.114Z,11.05
2023-03-14T00:39:30.103Z,11.07
2023-03-14T00:40:30.118Z,11.08
2023-03-14T00:41:30.107Z,11.09
2023-03-14T00:42:30.057Z,11.10
2023-03-14T00:43:30.035Z,11.09
2023-03-14T00:44:30.035Z,11.09
2023-03-14T00:45:30.014Z,11.10
2023-03-14T00:46:30.062Z,11.09
2023-03-14T00:47:30.039Z,11.08
2023-03-14T00:48:30.004Z,11.06
2023-03-14T00:49:30.041Z,11.04
2023-03-14T00:50:29.957Z,11.04
2023-03-14T00:51:29.924Z,11.05
2023-03-14T00:52:29.935Z,11.03
2023-03-14T00:53:29.933Z,11.00
2023-03-14T00:54:29.884Z,10.97
2023-03-14T00:55:29.882Z,10.95
2023-03-14T00:56:29.889Z,10.95
2023-03-14T00:57:29.844Z,10.93
2023-03-14T00:58:29.874Z,10.91
2023-03-14T00:59:29.852Z,10.91
2023-03-14T01:00:29.804Z,10.91
2023-03-14T01:01:29.851Z,10.88
2023-03-14T01:02:29.835Z,10.88
2023-03-14T01:03:29.767Z,10.89
2023-03-14T01:04:29.775Z,10.91
2023-03-14T01:05:29.765Z,10.92
2023-03-14T01:06:29.739Z,10.93
2023-03-14T01:07:29.728Z,10.93
2023-03-14T01:08:29.720Z,10.94
2023-03-14T01:09:29.691Z,10.99
2023-03-14T01:10:29.683Z,11.05
2023-03-14T01:11:29.731Z,11.09
2023-03-14T01:12:29.659Z,11.09
2023-03-14T01:13:29.637Z,11.10
2023-03-14T01:14:29.837Z,11.09
2023-03-14T01:15:29.610Z,11.09
2023-03-14T01:16:29.649Z,11.10
2023-03-14T01:17:29.590Z,11.10
2023-03-14T01:18:29.591Z,11.09
2023-03-14T01:19:29.622Z,11.08
2023-03-14T01:20:29.561Z,11.07
2023-03-14T01:21:29.543Z,11.05
2023-03-14T01:22:29.546Z,11.03
2023-03-14T01:23:29.531Z,11.00
2023-03-14T01:24:29.512Z,10.99
2023-03-14T01:25:29.472Z,11.00
2023-03-14T01:26:29.488Z,11.00
2023-03-14T01:27:29.442Z,11.00
2023-03-14T01:28:29.444Z,10.99
2023-03-14T01:29:29.447Z,10.97
2023-03-14T01:30:29.434Z,11.00
2023-03-14T01:31:29.471Z,11.03
2023-03-14T01:32:29.454Z,11.07
2023-03-14T01:33:29.367Z,11.10
2023-03-14T01:34:29.364Z,11.09
2023-03-14T01:35:29.412Z,11.05
2023-03-14T01:36:31.699Z,11.03
2023-03-14T01:37:29.319Z,11.01
2023-03-14T01:38:29.314Z,10.98
2023-03-14T01:39:29.291Z,10.93
2023-03-14T01:40:29.283Z,10.91
2023-03-14T01:41:29.306Z,10.87
2023-03-14T01:42:29.301Z,10.85
2023-03-14T01:43:29.226Z,10.83
2023-03-14T01:44:29.244Z,10.83
2023-03-14T01:45:29.260Z,10.80
2023-03-14T01:46:29.214Z,10.78
2023-03-14T01:47:29.202Z,10.77
2023-03-14T01:48:29.163Z,10.78
2023-03-14T01:49:29.174Z,10.80
2023-03-14T01:50:29.167Z,10.80
2023-03-14T01:51:29.142Z,10.82
2023-03-14T01:52:29.122Z,10.82
2023-03-14T01:53:29.114Z,10.83
2023-03-14T01:54:29.074Z,10.84
2023-03-14T01:55:29.082Z,10.85
2023-03-14T01:56:29.105Z,10.84
2023-03-14T01:57:29.038Z,10.84
2023-03-14T01:58:29.035Z,10.85
2023-03-14T01:59:29.037Z,10.85
2023-03-14T02:00:29.065Z,10.84
2023-03-14T02:01:29.029Z,10.82
2023-03-14T02:02:29.012Z,10.84
2023-03-14T02:03:29.042Z,10.85
2023-03-14T02:04:28.955Z,10.87
2023-03-14T02:05:28.940Z,10.89
2023-03-14T02:06:28.943Z,10.87
2023-03-14T02:07:28.919Z,10.87
2023-03-14T02:08:29.028Z,10.85
2023-03-14T02:09:28.974Z,10.83
2023-03-14T02:10:28.857Z,10.81
2023-03-14T02:11:28.866Z,10.76
2023-03-14T02:12:28.865Z,10.74
2023-03-14T02:13:28.844Z,10.72
2023-03-14T02:14:28.833Z,10.71
2023-03-14T02:15:28.800Z,10.69
2023-03-14T02:16:28.844Z,10.68
2023-03-14T02:17:28.792Z,10.67
2023-03-14T02:18:28.766Z,10.65
2023-03-14T02:19:28.773Z,10.62
2023-03-14T02:20:28.753Z,10.60
2023-03-14T02:21:28.717Z,10.58
2023-03-14T02:22:28.700Z,10.57
2023-03-14T02:23:28.709Z,10.58
2023-03-14T02:24:28.732Z,10.60
2023-03-14T02:25:28.735Z,10.65
2023-03-14T02:26:28.660Z,10.68
2023-03-14T02:27:28.629Z,10.71
2023-03-14T02:28:28.650Z,10.73
2023-03-14T02:29:28.671Z,10.74
2023-03-14T02:30:28.613Z,10.73
2023-03-14T02:31:28.638Z,10.69
2023-03-14T02:32:28.629Z,10.67
2023-03-14T02:33:28.552Z,10.64
2023-03-14T02:34:28.547Z,10.62
2023-03-14T02:35:28.527Z,10.57
2023-03-14T02:36:28.536Z,10.53
2023-03-14T02:37:28.523Z,10.48
2023-03-14T02:38:28.505Z,10.45
2023-03-14T02:39:28.469Z,10.42
2023-03-14T02:40:28.487Z,10.41
2023-03-14T02:41:28.452Z,10.39
2023-03-14T02:42:28.460Z,10.39
2023-03-14T02:43:28.466Z,10.40
2023-03-14T02:44:28.431Z,10.39
2023-03-14T02:45:28.399Z,10.39
2023-03-14T02:46:28.368Z,10.38
2023-03-14T02:47:28.408Z,10.39
2023-03-14T02:48:28.384Z,10.40
2023-03-14T02:49:28.343Z,10.41
2023-03-14T02:50:28.341Z,10.40
2023-03-14T02:51:28.307Z,10.39
2023-03-14T02:52:28.311Z,10.38
2023-03-14T02:53:28.298Z,10.36
2023-03-14T02:54:28.311Z,10.33
2023-03-14T02:55:28.315Z,10.29
2023-03-14T02:56:28.255Z,10.27
2023-03-14T02:57:28.217Z,10.28
2023-03-14T02:58:28.214Z,10.30
2023-03-14T02:59:28.226Z,10.30
2023-03-14T03:00:28.201Z,10.28
2023-03-14T03:01:28.252Z,10.25
2023-03-14T03:02:28.167Z,10.22
2023-03-14T03:03:28.226Z,10.19
2023-03-14T03:04:28.129Z,10.18
2023-03-14T03:05:28.140Z,10.14
2023-03-14T03:06:28.122Z,10.11
2023-03-14T03:07:28.121Z,10.08
2023-03-14T03:08:28.160Z,10.06
2023-03-14T03:09:28.336Z,10.05
2023-03-14T03:10:28.060Z,10.05
2023-03-14T03:11:28.165Z,10.06
2023-03-14T03:12:28.105Z,10.08
2023-03-14T03:13:28.168Z,10.05
2023-03-14T03:14:28.237Z,10.03
2023-03-14T03:15:27.985Z,9.99
2023-03-14T03:16:27.994Z,9.97
2023-03-14T03:17:27.990Z,9.95
2023-03-14T03:18:27.985Z,9.95
2023-03-14T03:19:27.967Z,9.93
2023-03-14T03:20:27.946Z,9.92
2023-03-14T03:21:27.920Z,9.92
2023-03-14T03:22:27.900Z,9.93
2023-03-14T03:23:27.971Z,9.93
2023-03-14T03:24:27.917Z,9.92
2023-03-14T03:25:27.865Z,9.91
2023-03-14T03:26:27.923Z,9.91
2023-03-14T03:27:27.848Z,9.91
2023-03-14T03:28:27.833Z,9.92
2023-03-14T03:29:27.823Z,9.93
2023-03-14T03:30:27.866Z,9.95
2023-03-14T03:31:27.836Z,9.96
2023-03-14T03:32:27.884Z,9.96
2023-03-14T03:33:27.771Z,9.92
2023-03-14T03:34:27.745Z,9.82
2023-03-14T03:35:27.744Z,9.69
2023-03-14T03:36:27.754Z,9.58
2023-03-14T03:37:27.744Z,9.48
2023-03-14T03:38:27.737Z,9.36
2023-03-14T03:39:27.685Z,9.22
2023-03-14T03:40:27.675Z,9.09
2023-03-14T03:41:27.687Z,8.97
2023-03-14T03:42:27.704Z,8.89
2023-03-14T03:43:27.626Z,8.84
2023-03-14T03:44:27.656Z,8.79
2023-03-14T03:45:27.605Z,8.73
2023-03-14T03:46:27.653Z,8.68
2023-03-14T03:47:27.615Z,8.67
2023-03-14T03:48:27.586Z,8.65
2023-03-14T03:49:27.620Z,8.61
2023-03-14T03:50:27.565Z,8.57
2023-03-14T03:51:27.546Z,8.55
2023-03-14T03:52:27.527Z,8.48
2023-03-14T03:53:33.562Z,8.39
2023-03-14T03:54:28.497Z,8.35
2023-03-14T03:55:27.481Z,8.36
2023-03-14T03:56:27.496Z,8.41
2023-03-14T03:57:27.470Z,8.46
2023-03-14T03:58:27.438Z,8.47
2023-03-14T03:59:27.428Z,8.45
2023-03-14T04:00:27.425Z,8.39
2023-03-14T04:01:27.408Z,8.35
2023-03-14T04:02:27.494Z,8.33
2023-03-14T04:03:27.470Z,8.31
2023-03-14T04:04:27.354Z,8.29
2023-03-14T04:05:27.350Z,8.26
2023-03-14T04:06:27.383Z,8.25
2023-03-14T04:07:27.366Z,8.26
2023-03-14T04:08:27.327Z,8.26
2023-03-14T04:09:27.296Z,8.28
2023-03-14T04:10:27.277Z,8.31
2023-03-14T04:11:27.273Z,8.34
2023-03-14T04:12:27.299Z,8.35
2023-03-14T04:13:27.249Z,8.32
2023-03-14T04:14:27.242Z,8.30
2023-03-14T04:15:27.260Z,8.28
2023-03-14T04:16:27.236Z,8.23
2023-03-14T04:17:27.195Z,8.18
2023-03-14T04:18:27.176Z,8.13
2023-03-14T04:19:27.160Z,8.07
2023-03-14T04:20:27.197Z,8.03
2023-03-14T04:21:27.127Z,8.00
2023-03-14T04:22:27.128Z,7.94
2023-03-14T04:23:27.102Z,7.86
2023-03-14T04:24:27.099Z,7.79
2023-03-14T04:25:27.281Z,7.76
2023-03-14T04:26:27.081Z,7.73
2023-03-14T04:27:27.103Z,7.70
2023-03-14T04:28:27.037Z,7.66
2023-03-14T04:29:27.020Z,7.62
2023-03-14T04:30:27.027Z,7.58
2023-03-14T04:31:27.091Z,7.52
2023-03-14T04:32:27.055Z,7.47
2023-03-14T04:33:26.981Z,7.42
2023-03-14T04:34:27.034Z,7.38
2023-03-14T04:35:27.054Z,7.35
2023-03-14T04:36:27.092Z,7.35
2023-03-14T04:37:27.010Z,7.40
2023-03-14T04:38:26.924Z,7.48
2023-03-14T04:39:26.913Z,7.56
2023-03-14T04:40:26.952Z,7.64
2023-03-14T04:41:26.884Z,7.71
2023-03-14T04:42:26.851Z,7.76
2023-03-14T04:43:26.872Z,7.80
2023-03-14T04:44:26.862Z,7.80
2023-03-14T04:45:26.825Z,7.78
2023-03-14T04:46:26.914Z,7.75
2023-03-14T04:47:26.796Z,7.69
2023-03-14T04:48:26.783Z,7.63
2023-03-14T04:49:26.805Z,7.58
2023-03-14T04:50:26.802Z,7.53
2023-03-14T04:51:26.766Z,7.51
2023-03-14T04:52:26.725Z,7.47
2023-03-14T04:53:26.706Z,7.44
2023-03-14T04:54:26.724Z,7.42
2023-03-14T04:55:26.899Z,7.39
2023-03-14T04:56:26.706Z,7.37
2023-03-14T04:57:26.662Z,7.32
2023-03-14T04:58:26.758Z,7.27
2023-03-14T04:59:26.631Z,7.22
2023-03-14T05:00:26.625Z,7.19
2023-03-14T05:01:26.854Z,7.16
2023-03-14T05:02:26.610Z,7.15
2023-03-14T05:03:26.573Z,7.14
2023-03-14T05:04:26.730Z,7.13
2023-03-14T05:05:26.741Z,7.12
2023-03-14T05:06:26.523Z,7.10
2023-03-14T05:07:26.547Z,7.11
2023-03-14T05:08:26.543Z,7.13
2023-03-14T05:09:26.514Z,7.11
2023-03-14T05:10:26.484Z,7.08
2023-03-14T05:11:26.460Z,7.05
2023-03-14T05:12:26.464Z,6.99
2023-03-14T05:13:26.461Z,6.94
2023-03-14T05:14:26.474Z,6.90
2023-03-14T05:15:26.438Z,6.85
2023-03-14T05:16:26.436Z,6.80
2023-03-14T05:17:26.391Z,6.77
2023-03-14T05:18:26.396Z,6.76
2023-03-14T05:19:26.488Z,6.76
2023-03-14T05:20:26.358Z,6.76
2023-03-14T05:21:26.355Z,6.76
2023-03-14T05:22:26.326Z,6.78
2023-03-14T05:23:26.331Z,6.76
2023-03-14T05:24:26.287Z,6.74
2023-03-14T05:25:26.360Z,6.72
2023-03-14T05:26:26.323Z,6.72
2023-03-14T05:27:26.279Z,6.72
2023-03-14T05:28:26.254Z,6.73
2023-03-14T05:29:26.229Z,6.74
2023-03-14T05:30:26.225Z,6.75
2023-03-14T05:31:26.263Z,6.73
2023-03-14T05:32:26.278Z,6.68
2023-03-14T05:33:26.183Z,6.64
2023-03-14T05:34:26.163Z,6.61
2023-03-14T05:35:26.147Z,6.59
2023-03-14T05:36:26.148Z,6.57
2023-03-14T05:37:26.160Z,6.54
2023-03-14T05:38:26.144Z,6.52
2023-03-14T05:39:26.167Z,6.51
2023-03-14T05:40:26.081Z,6.51
2023-03-14T05:41:26.112Z,6.51
2023-03-14T05:42:26.141Z,6.51
2023-03-14T05:43:26.060Z,6.52
2023-03-14T05:44:26.072Z,6.58
2023-03-14T05:45:26.014Z,6.66
2023-03-14T05:46:26.030Z,6.73
2023-03-14T05:47:25.992Z,6.76
2023-03-14T05:48:26.053Z,6.75
2023-03-14T05:49:26.009Z,6.74
2023-03-14T05:50:26.006Z,6.74
2023-03-14T05:51:25.950Z,6.74
2023-03-14T05:52:25.933Z,6.77
2023-03-14T05:53:25.928Z,6.83
2023-03-14T05:54:25.927Z,6.88
2023-03-14T05:55:25.931Z,6.93
2023-03-14T05:56:25.916Z,6.98
2023-03-14T05:57:25.870Z,7.01
2023-03-14T05:58:25.851Z,7.04
2023-03-14T05:59:25.833Z,7.05
2023-03-14T06:00:25.843Z,7.04
2023-03-14T06:01:25.834Z,7.02
2023-03-14T06:02:25.863Z,6.99
2023-03-14T06:03:25.821Z,6.97
2023-03-14T06:04:25.791Z,6.95
2023-03-14T06:05:25.770Z,6.95
2023-03-14T06:06:25.769Z,6.96
2023-03-14T06:07:25.750Z,6.93
2023-03-14T06:08:25.742Z,6.92
2023-03-14T06:09:25.717Z,6.92
2023-03-14T06:10:25.698Z,6.94
2023-03-14T06:11:25.706Z,6.95
2023-03-14T06:12:25.677Z,6.96
2023-03-14T06:13:25.652Z,6.96
2023-03-14T06:14:25.672Z,6.96
2023-03-14T06:15:25.640Z,6.95
2023-03-14T06:16:25.665Z,6.95
2023-03-14T06:17:25.620Z,6.96
2023-03-14T06:18:25.582Z,6.95
2023-03-14T06:19:25.603Z,6.96
2023-03-14T06:20:25.617Z,6.98
2023-03-14T06:21:25.570Z,7.00
2023-03-14T06:22:25.531Z,7.01
2023-03-14T06:23:25.574Z,7.04
2023-03-14T06:24:25.713Z,7.08
2023-03-14T06:25:25.559Z,7.13
2023-03-14T06:26:25.516Z,7.15
2023-03-14T06:27:25.578Z,7.15
2023-03-14T06:28:26.186Z,7.16
2023-03-14T06:29:25.444Z,7.21
2023-03-14T06:30:25.441Z,7.27
2023-03-14T06:31:25.425Z,7.30
2023-03-14T06:32:25.474Z,7.32
2023-03-14T06:33:25.404Z,7.36
2023-03-14T06:34:25.429Z,7.41
2023-03-14T06:35:25.368Z,7.48
2023-03-14T06:36:25.351Z,7.53
2023-03-14T06:37:25.339Z,7.55
2023-03-14T06:38:25.362Z,7.57
2023-03-14T06:39:25.374Z,7.61
2023-03-14T06:40:25.302Z,7.66
2023-03-14T06:41:25.289Z,7.68
2023-03-14T06:42:25.272Z,7.70
2023-03-14T06:43:25.309Z,7.73
2023-03-14T06:44:25.269Z,7.74
2023-03-14T06:45:25.231Z,7.74
2023-03-14T06:46:25.363Z,7.77
2023-03-14T06:47:25.201Z,7.82
2023-03-14T06:48:25.216Z,7.84
2023-03-14T06:49:25.220Z,7.86
2023-03-14T06:50:25.430Z,7.89
2023-03-14T06:51:25.154Z,7.95
2023-03-14T06:52:25.173Z,7.99
2023-03-14T06:53:25.141Z,8.02
2023-03-14T06:54:25.110Z,8.06
2023-03-14T06:55:25.146Z,8.07
2023-03-14T06:56:25.110Z,8.09
2023-03-14T06:57:25.100Z,8.11
2023-03-14T06:58:25.076Z,8.13
2023-03-14T06:59:25.093Z,8.15
2023-03-14T07:00:25.053Z,8.18
2023-03-14T07:01:25.161Z,8.20
2023-03-14T07:02:39.823Z,8.22
2023-03-14T07:03:26.077Z,8.24
2023-03-14T07:04:25.076Z,8.28
2023-03-14T07:05:25.009Z,8.34
2023-03-14T07:06:24.967Z,8.39
2023-03-14T07:07:24.973Z,8.41
2023-03-14T07:08:24.946Z,8.42
2023-03-14T07:09:24.917Z,8.45
2023-03-14T07:10:24.902Z,8.51
2023-03-14T07:11:24.900Z,8.58
2023-03-14T07:12:24.902Z,8.65
2023-03-14T07:13:24.862Z,8.70
2023-03-14T07:14:24.871Z,8.73
2023-03-14T07:15:24.841Z,8.74
2023-03-14T07:16:24.826Z,8.75
2023-03-14T07:17:24.821Z,8.76
2023-03-14T07:18:24.808Z,8.78
2023-03-14T07:19:24.803Z,8.83
2023-03-14T07:20:24.789Z,8.87
2023-03-14T07:21:25.028Z,8.89
2023-03-14T07:22:24.752Z,8.91
2023-03-14T07:23:24.730Z,8.94
2023-03-14T07:24:24.795Z,8.98
2023-03-14T07:25:24.724Z,9.03
2023-03-14T07:26:24.754Z,9.09
2023-03-14T07:27:24.690Z,9.16
2023-03-14T07:28:24.672Z,9.23
2023-03-14T07:29:24.676Z,9.33
2023-03-14T07:30:24.667Z,9.44
2023-03-14T07:31:24.671Z,9.58
2023-03-14T07:32:24.731Z,9.72
2023-03-14T07:33:24.615Z,9.83
2023-03-14T07:34:24.603Z,9.94
2023-03-14T07:35:24.575Z,10.04
2023-03-14T07:36:24.622Z,10.11
2023-03-14T07:37:24.553Z,10.18
2023-03-14T07:38:24.577Z,10.26
2023-03-14T07:39:24.531Z,10.32
2023-03-14T07:40:24.541Z,10.38
2023-03-14T07:41:24.514Z,10.42
2023-03-14T07:42:24.589Z,10.45
2023-03-14T07:43:24.471Z,10.47
2023-03-14T07:44:24.804Z,10.51
2023-03-14T07:45:25.171Z,10.55
2023-03-14T07:46:24.479Z,10.57
2023-03-14T07:47:24.427Z,10.61
2023-03-14T07:48:24.407Z,10.64
2023-03-14T07:49:24.424Z,10.67
2023-03-14T07:50:24.400Z,10.70
2023-03-14T07:51:24.372Z,10.74
2023-03-14T07:52:24.395Z,10.76
2023-03-14T07:53:24.371Z,10.78
2023-03-14T07:54:24.359Z,10.80
2023-03-14T07:55:24.306Z,10.81
2023-03-14T07:56:24.334Z,10.82
2023-03-14T07:57:24.465Z,10.84
2023-03-14T07:58:24.320Z,10.86
2023-03-14T07:59:24.259Z,10.88
2023-03-14T08:00:24.304Z,10.90
2023-03-14T08:01:24.391Z,10.92
2023-03-14T08:02:24.409Z,10.95
2023-03-14T08:03:24.210Z,10.97
2023-03-14T08:04:24.228Z,10.99
2023-03-14T08:05:24.206Z,11.00
2023-03-14T08:06:24.175Z,11.00
2023-03-14T08:07:24.187Z,11.02
2023-03-14T08:08:24.206Z,11.04
2023-03-14T08:09:24.149Z,11.05
2023-03-14T08:10:24.137Z,11.07
2023-03-14T08:11:24.244Z,11.10
2023-03-14T08:12:24.144Z,11.12
2023-03-14T08:13:24.077Z,11.12
2023-03-14T08:14:24.099Z,11.13
2023-03-14T08:15:24.198Z,11.14
2023-03-14T08:16:24.168Z,11.17
2023-03-14T08:17:24.027Z,11.20
2023-03-14T08:18:24.035Z,11.22
2023-03-14T08:19:23.993Z,11.24
2023-03-14T08:20:24.014Z,11.26
2023-03-14T08:21:24.027Z,11.28
2023-03-14T08:22:23.986Z,11.32
2023-03-14T08:23:23.964Z,11.35
2023-03-14T08:24:23.940Z,11.38
2023-03-14T08:25:23.957Z,11.41
2023-03-14T08:26:23.928Z,11.44
2023-03-14T08:27:23.889Z,11.47
2023-03-14T08:28:23.886Z,11.51
2023-03-14T08:29:23.860Z,11.55
2023-03-14T08:30:23.995Z,11.58
2023-03-14T08:31:24.017Z,11.60
2023-03-14T08:32:23.900Z,11.60
2023-03-14T08:33:23.849Z,11.60
2023-03-14T08:34:23.840Z,11.60
2023-03-14T08:35:23.788Z,11.61
2023-03-14T08:36:24.281Z,11.62
2023-03-14T08:37:26.984Z,11.64
2023-03-14T08:38:23.761Z,11.66
2023-03-14T08:39:23.823Z,11.69
2023-03-14T08:40:23.746Z,11.70
2023-03-14T08:41:24.672Z,11.70
2023-03-14T08:42:23.705Z,11.73
2023-03-14T08:43:23.757Z,11.74
2023-03-14T08:44:23.844Z,11.76
2023-03-14T08:45:23.698Z,11.80
2023-03-14T08:46:23.720Z,11.84
2023-03-14T08:47:23.622Z,11.88
2023-03-14T08:48:23.607Z,11.88
2023-03-14T08:49:23.670Z,11.88
2023-03-14T08:50:23.689Z,11.88
2023-03-14T08:51:23.585Z,11.89
2023-03-14T08:52:23.552Z,11.91
2023-03-14T08:53:23.568Z,11.92
2023-03-14T08:54:23.526Z,11.93
2023-03-14T08:55:23.530Z,11.95
2023-03-14T08:56:25.972Z,11.97
2023-03-14T08:57:23.469Z,11.98
2023-03-14T08:58:23.494Z,11.99
2023-03-14T08:59:23.460Z,11.97
2023-03-14T09:00:23.530Z,11.96
2023-03-14T09:01:23.577Z,11.94
2023-03-14T09:02:23.425Z,11.91
2023-03-14T09:03:23.418Z,11.89
2023-03-14T09:04:23.506Z,11.88
2023-03-14T09:05:23.373Z,11.88
2023-03-14T09:06:23.468Z,11.88
2023-03-14T09:07:23.433Z,11.89
2023-03-14T09:08:23.393Z,11.90
2023-03-14T09:09:23.308Z,11.91
2023-03-14T09:10:23.402Z,11.92
2023-03-14T09:11:23.399Z,11.90
2023-03-14T09:12:23.280Z,11.88
2023-03-14T09:13:23.258Z,11.86
2023-03-14T09:14:23.258Z,11.83
2023-03-14T09:15:23.289Z,11.81
2023-03-14T09:16:23.357Z,11.78
2023-03-14T09:17:23.218Z,11.77
2023-03-14T09:18:23.210Z,11.77
2023-03-14T09:19:23.243Z,11.77
2023-03-14T09:20:23.196Z,11.78
2023-03-14T09:21:23.186Z,11.77
2023-03-14T09:22:23.141Z,11.78
2023-03-14T09:23:23.192Z,11.79
2023-03-14T09:24:23.113Z,11.81
2023-03-14T09:25:23.140Z,11.83
2023-03-14T09:26:23.101Z,11.85
2023-03-14T09:27:23.070Z,11.87
2023-03-14T09:28:23.052Z,11.89
2023-03-14T09:29:23.063Z,11.93
2023-03-14T09:30:23.112Z,11.97
2023-03-14T09:31:23.074Z,12.01
2023-03-14T09:32:23.073Z,12.05
2023-03-14T09:33:22.994Z,12.07
2023-03-14T09:34:22.971Z,12.09
2023-03-14T09:35:23.019Z,12.11
2023-03-14T09:36:22.944Z,12.14
2023-03-14T09:37:22.943Z,12.18
2023-03-14T09:38:23.133Z,12.21
2023-03-14T09:39:22.906Z,12.25
2023-03-14T09:40:22.891Z,12.28
2023-03-14T09:41:23.580Z,12.31
2023-03-14T09:42:22.882Z,12.33
2023-03-14T09:43:22.852Z,12.34
2023-03-14T09:44:22.860Z,12.33
2023-03-14T09:45:23.704Z,12.33
2023-03-14T09:46:22.885Z,12.33
2023-03-14T09:47:23.485Z,12.34
2023-03-14T09:48:22.778Z,12.36
2023-03-14T09:49:22.782Z,12.37
2023-03-14T09:50:22.775Z,12.38
2023-03-14T09:51:22.746Z,12.39
2023-03-14T09:52:22.737Z,12.39
2023-03-14T09:53:22.715Z,12.41
2023-03-14T09:54:22.698Z,12.43
2023-03-14T09:55:22.793Z,12.46
2023-03-14T09:56:22.799Z,12.50
2023-03-14T09:57:22.674Z,12.52
2023-03-14T09:58:22.634Z,12.54
2023-03-14T09:59:22.643Z,12.56
2023-03-14T10:00:22.617Z,12.57
2023-03-14T10:01:22.647Z,12.60
2023-03-14T10:02:22.606Z,12.62
2023-03-14T10:03:22.562Z,12.64
2023-03-14T10:04:22.580Z,12.65
2023-03-14T10:05:22.554Z,12.66
2023-03-14T10:06:22.557Z,12.66
2023-03-14T10:07:22.520Z,12.66
2023-03-14T10:08:22.556Z,12.65
2023-03-14T10:09:22.494Z,12.65
2023-03-14T10:10:22.504Z,12.67
2023-03-14T10:11:22.464Z,12.69
2023-03-14T10:12:22.542Z,12.72
2023-03-14T10:13:22.451Z,12.75
2023-03-14T10:14:22.519Z,12.79
2023-03-14T10:15:22.431Z,12.83
2023-03-14T10:16:22.491Z,12.86
2023-03-14T10:17:22.394Z,12.88
2023-03-14T10:18:22.394Z,12.90
2023-03-14T10:19:22.378Z,12.92
2023-03-14T10:20:22.379Z,12.94
2023-03-14T10:21:22.332Z,12.97
2023-03-14T10:22:22.322Z,12.99
2023-03-14T10:23:22.310Z,13.00
2023-03-14T10:24:22.300Z,13.03
2023-03-14T10:25:22.281Z,13.06
2023-03-14T10:26:22.302Z,13.09
2023-03-14T10:27:22.264Z,13.11
2023-03-14T10:28:22.279Z,13.13
2023-03-14T10:29:22.232Z,13.14
2023-03-14T10:30:22.216Z,13.15
2023-03-14T10:31:22.194Z,13.15
2023-03-14T10:32:22.277Z,13.15
2023-03-14T10:33:22.187Z,13.15
2023-03-14T10:34:22.189Z,13.15
2023-03-14T10:35:22.164Z,13.16
2023-03-14T10:36:22.212Z,13.17
2023-03-14T10:37:22.301Z,13.17
2023-03-14T10:38:22.189Z,13.16
2023-03-14T10:39:22.170Z,13.14
2023-03-14T10:40:22.106Z,13.14
2023-03-14T10:41:22.138Z,13.14
2023-03-14T10:42:22.079Z,13.11
2023-03-14T10:43:22.078Z,13.09
2023-03-14T10:44:22.071Z,13.06
2023-03-14T10:45:22.028Z,13.02
2023-03-14T10:46:22.120Z,13.00
2023-03-14T10:47:22.010Z,12.97
2023-03-14T10:48:21.996Z,12.94
2023-03-14T10:49:21.970Z,12.91
2023-03-14T10:50:21.989Z,12.88
2023-03-14T10:51:21.981Z,12.86
2023-03-14T10:52:26.396Z,12.84
2023-03-14T10:53:22.938Z,12.83
2023-03-14T10:54:21.977Z,12.83
2023-03-14T10:55:21.947Z,12.83
2023-03-14T10:56:21.941Z,12.84
2023-03-14T10:57:21.938Z,12.85
2023-03-14T10:58:21.865Z,12.86
2023-03-14T10:59:21.872Z,12.85
2023-03-14T11:00:21.859Z,12.85
2023-03-14T11:01:21.857Z,12.84
2023-03-14T11:02:21.838Z,12.85
2023-03-14T11:03:21.821Z,12.87
2023-03-14T11:04:21.825Z,12.88
2023-03-14T11:05:21.818Z,12.90
2023-03-14T11:06:21.761Z,12.91
2023-03-14T11:07:21.779Z,12.91
2023-03-14T11:08:21.810Z,12.91
2023-03-14T11:09:21.770Z,12.91
2023-03-14T11:10:21.693Z,12.89
2023-03-14T11:11:21.730Z,12.86
2023-03-14T11:12:21.666Z,12.83
2023-03-14T11:13:21.716Z,12.79
2023-03-14T11:14:21.662Z,12.75
2023-03-14T11:15:21.641Z,12.72
2023-03-14T11:16:21.612Z,12.70
2023-03-14T11:17:21.602Z,12.67
2023-03-14T11:18:21.591Z,12.66
2023-03-14T11:19:21.611Z,12.68
2023-03-14T11:20:21.607Z,12.68
2023-03-14T11:21:21.582Z,12.67
2023-03-14T11:22:21.594Z,12.67
2023-03-14T11:23:21.588Z,12.67
2023-03-14T11:24:21.625Z,12.66
2023-03-14T11:25:21.494Z,12.65
2023-03-14T11:26:21.511Z,12.64
2023-03-14T11:27:21.488Z,12.63
2023-03-14T11:28:21.460Z,12.64
2023-03-14T11:29:21.466Z,12.64
2023-03-14T11:30:21.484Z,12.62
2023-03-14T11:31:21.450Z,12.59
2023-03-14T11:32:21.453Z,12.56
2023-03-14T11:33:21.392Z,12.54
2023-03-14T11:34:21.395Z,12.53
2023-03-14T11:35:21.394Z,12.53
2023-03-14T11:36:21.407Z,12.52
2023-03-14T11:37:21.348Z,12.51
2023-03-14T11:38:21.346Z,12.52
2023-03-14T11:39:21.306Z,12.53
2023-03-14T11:40:21.305Z,12.54
2023-03-14T11:41:21.335Z,12.55
2023-03-14T11:42:21.336Z,12.56
2023-03-14T11:43:21.265Z,12.58
2023-03-14T11:44:21.573Z,12.60
2023-03-14T11:45:21.239Z,12.60
2023-03-14T11:46:21.257Z,12.62
2023-03-14T11:47:21.213Z,12.61
2023-03-14T11:48:21.203Z,12.60
2023-03-14T11:49:21.193Z,12.59
2023-03-14T11:50:21.189Z,12.60
2023-03-14T11:51:21.176Z,12.62
2023-03-14T11:52:21.137Z,12.64
2023-03-14T11:53:21.137Z,12.67
2023-03-14T11:54:21.243Z,12.69
2023-03-14T11:55:21.117Z,12.69
2023-03-14T11:56:21.192Z,12.67
2023-03-14T11:57:21.284Z,12.65
2023-03-14T11:58:21.062Z,12.63
2023-03-14T11:59:21.832Z,12.60
2023-03-14T12:00:21.065Z,12.56
2023-03-14T12:01:21.023Z,12.52
2023-03-14T12:02:21.068Z,12.50
2023-03-14T12:03:21.001Z,12.49
2023-03-14T12:04:21.052Z,12.48
2023-03-14T12:05:20.983Z,12.46
2023-03-14T12:06:20.955Z,12.43
2023-03-14T12:07:21.328Z,12.41
2023-03-14T12:08:20.942Z,12.38
2023-03-14T12:09:20.912Z,12.34
2023-03-14T12:10:21.057Z,12.30
2023-03-14T12:11:20.912Z,12.25
2023-03-14T12:12:20.942Z,12.22
2023-03-14T12:13:20.989Z,12.20
2023-03-14T12:14:20.908Z,12.18
2023-03-14T12:15:20.845Z,12.17
2023-03-14T12:16:20.895Z,12.15
2023-03-14T12:17:20.886Z,12.14
2023-03-14T12:18:20.796Z,12.15
2023-03-14T12:19:21.650Z,12.16
2023-03-14T12:20:20.806Z,12.15
2023-03-14T12:21:20.762Z,12.13
2023-03-14T12:22:20.747Z,12.11
2023-03-14T12:23:20.722Z,12.10
2023-03-14T12:24:20.736Z,12.10
2023-03-14T12:25:20.744Z,12.12
2023-03-14T12:26:20.714Z,12.13
2023-03-14T12:27:20.722Z,12.14
2023-03-14T12:28:20.670Z,12.13
2023-03-14T12:29:20.643Z,12.12
2023-03-14T12:30:20.779Z,12.11
2023-03-14T12:31:20.620Z,12.12
2023-03-14T12:32:20.668Z,12.11
2023-03-14T12:33:20.585Z,12.11
2023-03-14T12:34:20.733Z,12.09
2023-03-14T12:35:20.658Z,12.06
2023-03-14T12:36:20.637Z,12.05
2023-03-14T12:37:20.541Z,12.05
2023-03-14T12:38:20.571Z,12.04
2023-03-14T12:39:20.539Z,12.06
2023-03-14T12:40:20.540Z,12.06
2023-03-14T12:41:20.473Z,12.05
2023-03-14T12:42:20.496Z,12.03
2023-03-14T12:43:20.538Z,12.03
2023-03-14T12:44:20.474Z,12.03
2023-03-14T12:45:20.441Z,12.03
2023-03-14T12:46:20.506Z,12.03
2023-03-14T12:47:20.507Z,12.01
2023-03-14T12:48:20.464Z,11.98
2023-03-14T12:49:20.391Z,11.95
2023-03-14T12:50:20.403Z,11.94
2023-03-14T12:51:20.502Z,11.92
2023-03-14T12:52:20.517Z,11.89
2023-03-14T12:53:20.332Z,11.87
2023-03-14T12:54:20.348Z,11.86
2023-03-14T12:55:20.334Z,11.85
2023-03-14T12:56:20.512Z,11.84
2023-03-14T12:57:20.537Z,11.85
2023-03-14T12:58:20.266Z,11.86
2023-03-14T12:59:20.256Z,11.85
2023-03-14T13:00:20.232Z,11.86
2023-03-14T13:01:20.575Z,11.86